Time;durP1;ratioP1;P1;durP2;ratioP2;P2;SDS_P1;SDS_P2;PMS_P1;PMS_P2;Temp;Humidity;BMP_temperature;BMP_pressure;BME280_temperature;BME280_humidity;BME280_pressure;Samples;Min_cycle;Max_cycle;Signal;HPM_P1;HPM_P2
2021/12/24 00:01:47;;;;;;;61.92;38.05;;;7.60;99.90;;;;;;5034911;28;20029;-77
2021/12/24 00:04:12;;;;;;;63.67;37.75;;;7.60;99.90;;;;;;5034480;28;20067;-77
2021/12/24 00:06:38;;;;;;;61.45;37.33;;;7.70;99.90;;;;;;5034436;28;20049;-77
2021/12/24 00:09:05;;;;;;;64.70;38.13;;;7.70;99.90;;;;;;5035045;28;20060;-77
2021/12/24 00:11:31;;;;;;;63.78;36.92;;;7.70;99.90;;;;;;5025285;28;20037;-77
2021/12/24 00:13:59;;;;;;;65.68;37.42;;;7.70;99.90;;;;;;5035005;28;20125;-77
2021/12/24 00:16:51;;;;;;;64.80;38.08;;;7.80;99.90;;;;;;5034684;28;20083;-78
2021/12/24 00:22:14;;;;;;;66.47;37.25;;;7.80;99.90;;;;;;5034605;28;20029;-78
2021/12/24 00:35:35;;;;;;;81.38;41.90;;;8.00;99.90;;;;;;5034167;28;20044;-78
2021/12/24 00:38:04;;;;;;;77.47;40.50;;;8.00;99.90;;;;;;5022634;28;20469;-78
2021/12/24 00:40:38;;;;;;;67.22;38.47;;;8.00;99.90;;;;;;5033923;28;20105;-77
2021/12/24 00:43:04;;;;;;;76.50;39.70;;;8.00;99.90;;;;;;5034247;28;20034;-77
2021/12/24 00:45:33;;;;;;;72.57;38.38;;;8.10;99.90;;;;;;5034377;28;20033;-77
2021/12/24 00:48:00;;;;;;;73.72;37.45;;;8.10;99.90;;;;;;5034371;28;20218;-77
2021/12/24 00:50:44;;;;;;;71.20;36.83;;;8.10;99.90;;;;;;5033753;28;20068;-77
2021/12/24 00:55:02;;;;;;;71.90;37.78;;;8.10;99.90;;;;;;5025478;28;20045;-78
2021/12/24 00:55:56;;;;;;;69.38;36.50;;;8.20;99.90;;;;;;5033743;28;20397;-78
2021/12/24 00:58:21;;;;;;;64.18;34.90;;;8.20;99.90;;;;;;5033413;28;20025;-78
2021/12/24 01:00:47;;;;;;;71.25;36.05;;;8.20;99.90;;;;;;5033850;28;20025;-78
2021/12/24 01:03:13;;;;;;;70.32;35.65;;;8.20;99.90;;;;;;5033564;28;20382;-78
2021/12/24 01:05:40;;;;;;;66.32;36.20;;;8.30;99.90;;;;;;5033952;28;20056;-78
2021/12/24 01:08:08;;;;;;;64.70;34.40;;;8.30;99.90;;;;;;5033428;28;20384;-78
2021/12/24 01:10:37;;;;;;;54.35;31.73;;;8.40;99.90;;;;;;5033268;28;20112;-77
2021/12/24 01:13:05;;;;;;;63.22;33.75;;;8.40;99.90;;;;;;5033374;28;20033;-77
2021/12/24 01:15:32;;;;;;;54.47;32.70;;;8.40;99.90;;;;;;5033361;28;20029;-76
2021/12/24 01:20:59;;;;;;;56.83;32.45;;;8.40;99.90;;;;;;5017174;28;20033;-76
2021/12/24 01:25:59;;;;;;;50.42;30.30;;;8.50;99.90;;;;;;5019465;28;20112;-76
2021/12/24 01:39:14;;;;;;;48.00;28.75;;;8.60;99.90;;;;;;5032878;28;20129;-77
2021/12/24 01:44:27;;;;;;;45.72;29.08;;;8.60;99.90;;;;;;5041431;28;20133;-77
2021/12/24 01:46:55;;;;;;;48.75;29.33;;;8.60;99.90;;;;;;5036475;28;20034;-77
2021/12/24 01:49:20;;;;;;;46.13;30.20;;;8.70;99.90;;;;;;5032602;28;20028;-77
2021/12/24 01:51:46;;;;;;;41.80;27.08;;;8.70;99.90;;;;;;5032657;28;20025;-77
2021/12/24 01:54:12;;;;;;;40.20;27.17;;;8.70;99.90;;;;;;5032521;28;20049;-78
2021/12/24 01:56:38;;;;;;;44.65;29.85;;;8.70;99.90;;;;;;5033036;28;20053;-78
2021/12/24 01:59:04;;;;;;;44.55;29.17;;;8.70;99.90;;;;;;5032537;28;20025;-77
2021/12/24 02:01:29;;;;;;;40.85;28.42;;;8.70;99.90;;;;;;5032133;28;20033;-78
2021/12/24 02:03:55;;;;;;;43.55;28.40;;;8.70;99.90;;;;;;5032939;28;20075;-77
2021/12/24 02:06:23;;;;;;;44.67;29.65;;;8.70;99.90;;;;;;5032900;28;20035;-77
2021/12/24 02:08:49;;;;;;;42.53;28.33;;;8.80;99.90;;;;;;5033014;28;20025;-77
2021/12/24 02:11:15;;;;;;;45.92;29.27;;;8.80;99.90;;;;;;5032518;28;20373;-77
2021/12/24 02:13:40;;;;;;;42.53;28.27;;;8.80;99.90;;;;;;5032876;28;20454;-77
2021/12/24 02:29:58;;;;;;;49.25;31.48;;;8.90;99.90;;;;;;5031742;28;20564;-78
2021/12/24 02:32:24;;;;;;;51.90;33.40;;;8.90;99.90;;;;;;5032605;28;20029;-78
2021/12/24 02:34:50;;;;;;;48.53;31.98;;;9.00;99.90;;;;;;5032570;28;20109;-78
2021/12/24 02:37:17;;;;;;;57.53;32.45;;;9.00;99.90;;;;;;5032567;28;20455;-78
2021/12/24 02:39:42;;;;;;;55.10;31.98;;;9.00;99.90;;;;;;5032781;28;20026;-78
2021/12/24 02:42:18;;;;;;;61.13;34.25;;;9.00;99.90;;;;;;5039655;28;20029;-78
2021/12/24 02:44:46;;;;;;;58.90;34.08;;;9.00;99.90;;;;;;5032633;28;20021;-78
2021/12/24 02:55:06;;;;;;;59.20;36.53;;;9.00;99.90;;;;;;5034255;28;20107;-77
2021/12/24 02:57:34;;;;;;;65.07;36.97;;;9.00;99.90;;;;;;5036081;28;20034;-78
2021/12/24 03:00:05;;;;;;;65.22;37.35;;;9.10;99.90;;;;;;5036255;28;20060;-78
2021/12/24 03:02:31;;;;;;;70.47;39.22;;;9.10;99.90;;;;;;5036180;28;20595;-76
2021/12/24 03:04:57;;;;;;;68.18;39.83;;;9.10;99.90;;;;;;5035808;28;20112;-78
2021/12/24 03:07:23;;;;;;;66.18;38.70;;;9.10;99.90;;;;;;5035707;28;20471;-78
2021/12/24 03:09:49;;;;;;;67.20;38.65;;;9.10;99.90;;;;;;5035902;28;20022;-76
2021/12/24 03:12:14;;;;;;;73.40;41.28;;;9.10;99.90;;;;;;5035967;28;20488;-76
2021/12/24 03:14:40;;;;;;;73.28;41.50;;;9.10;99.90;;;;;;5036345;28;20052;-76
2021/12/24 03:17:11;;;;;;;66.03;38.67;;;9.20;99.90;;;;;;5035948;28;20100;-76
2021/12/24 03:19:38;;;;;;;71.20;40.95;;;9.20;99.90;;;;;;5035554;28;20038;-76
2021/12/24 03:24:39;;;;;;;72.35;41.25;;;9.20;99.90;;;;;;5035987;28;20040;-76
2021/12/24 03:27:07;;;;;;;75.75;41.55;;;9.20;99.90;;;;;;5035472;28;20029;-77
2021/12/24 03:29:34;;;;;;;76.28;40.22;;;9.30;99.90;;;;;;5035725;28;20087;-77
2021/12/24 03:32:00;;;;;;;74.63;41.53;;;9.30;99.90;;;;;;5035446;28;20037;-77
2021/12/24 03:34:26;;;;;;;71.03;39.60;;;9.30;99.90;;;;;;5035231;28;20044;-77
2021/12/24 03:36:52;;;;;;;73.53;39.42;;;9.40;99.90;;;;;;5035617;28;20032;-77
2021/12/24 03:39:18;;;;;;;73.45;37.63;;;9.40;99.90;;;;;;5040578;28;20521;-78
2021/12/24 03:41:44;;;;;;;72.72;37.28;;;9.50;99.90;;;;;;5035215;28;20034;-78
2021/12/24 03:44:12;;;;;;;70.13;37.63;;;9.50;99.90;;;;;;5035684;28;20026;-78
2021/12/24 03:46:57;;;;;;;76.03;36.13;;;9.50;99.90;;;;;;5034992;28;20216;-78
2021/12/24 03:49:36;;;;;;;64.07;35.33;;;9.50;99.90;;;;;;5035762;28;20084;-78
2021/12/24 03:54:58;;;;;;;57.53;33.40;;;9.60;99.90;;;;;;5024051;28;20085;-77
2021/12/24 03:57:28;;;;;;;55.92;31.20;;;9.60;99.90;;;;;;5034551;28;20468;-76
2021/12/24 03:59:56;;;;;;;56.83;31.10;;;9.60;99.90;;;;;;5034812;28;20116;-77
2021/12/24 04:02:21;;;;;;;52.33;30.02;;;9.60;99.90;;;;;;5034736;28;20473;-77
2021/12/24 04:04:48;;;;;;;57.78;29.85;;;9.60;99.90;;;;;;5034814;28;20059;-77
2021/12/24 04:07:16;;;;;;;53.03;29.52;;;9.70;99.90;;;;;;5034650;28;20388;-78
2021/12/24 04:09:56;;;;;;;55.72;28.67;;;9.70;99.90;;;;;;5034141;28;20076;-77
2021/12/24 04:12:22;;;;;;;47.20;26.70;;;9.70;99.90;;;;;;5034716;28;20163;-78
2021/12/24 04:14:48;;;;;;;54.50;28.20;;;9.70;99.90;;;;;;5034798;28;20544;-78
2021/12/24 04:17:13;;;;;;;48.53;28.42;;;9.70;99.90;;;;;;5034883;28;20021;-77
2021/12/24 04:25:08;;;;;;;51.47;27.83;;;9.70;99.90;;;;;;5034833;28;20036;-78
2021/12/24 04:27:34;;;;;;;61.05;28.70;;;9.70;99.90;;;;;;5034096;28;20025;-76
2021/12/24 04:30:13;;;;;;;45.35;27.02;;;9.70;99.90;;;;;;5034139;28;20045;-77
2021/12/24 04:35:20;;;;;;;50.63;28.73;;;9.80;99.90;;;;;;5034271;28;20057;-77
2021/12/24 04:51:24;;;;;;;49.55;25.48;;;9.70;99.90;;;;;;5033198;28;20531;-77
2021/12/24 05:02:14;;;;;;;48.42;25.08;;;9.70;99.90;;;;;;5032101;28;20079;-78
2021/12/24 05:04:49;;;;;;;49.95;24.95;;;9.70;99.90;;;;;;5033734;28;20500;-78
2021/12/24 05:09:59;;;;;;;48.78;24.42;;;9.70;99.90;;;;;;5033583;28;20125;-78
2021/12/24 05:12:25;;;;;;;38.33;24.80;;;9.70;99.90;;;;;;5033441;28;20112;-78
2021/12/24 05:14:51;;;;;;;49.15;24.00;;;9.70;99.90;;;;;;5033370;28;20045;-78
2021/12/24 05:17:27;;;;;;;42.08;23.60;;;9.70;99.90;;;;;;5032966;28;20041;-78
2021/12/24 05:22:37;;;;;;;41.40;22.27;;;9.70;99.90;;;;;;5034179;28;20040;-78
2021/12/24 05:25:03;;;;;;;43.25;22.92;;;9.70;99.90;;;;;;5033300;28;20025;-78
2021/12/24 05:27:29;;;;;;;45.67;22.52;;;9.70;99.90;;;;;;5033236;28;20025;-78
2021/12/24 05:29:55;;;;;;;38.67;21.30;;;9.70;99.90;;;;;;5033245;28;20044;-78
2021/12/24 05:32:21;;;;;;;42.75;21.92;;;9.70;99.90;;;;;;5037092;28;20037;-76
2021/12/24 05:34:47;;;;;;;40.03;22.25;;;9.70;99.90;;;;;;5038404;28;20031;-77
2021/12/24 05:37:12;;;;;;;39.80;21.23;;;9.70;99.90;;;;;;5033042;28;20108;-77
2021/12/24 05:39:38;;;;;;;43.72;20.70;;;9.80;99.90;;;;;;5032973;28;20037;-77
2021/12/24 05:42:05;;;;;;;42.13;20.80;;;9.70;99.90;;;;;;5033088;28;20029;-77
2021/12/24 05:44:32;;;;;;;36.08;19.92;;;9.70;99.90;;;;;;5032894;28;20487;-77
2021/12/24 05:46:58;;;;;;;38.08;20.40;;;9.70;99.90;;;;;;5033081;28;20033;-77
2021/12/24 05:49:24;;;;;;;39.83;20.27;;;9.70;99.90;;;;;;5033257;28;20036;-77
2021/12/24 05:51:51;;;;;;;37.10;19.75;;;9.70;99.90;;;;;;5033033;28;20491;-78
2021/12/24 05:54:17;;;;;;;36.53;19.05;;;9.70;99.90;;;;;;5032522;28;20150;-78
2021/12/24 05:56:44;;;;;;;37.83;19.80;;;9.70;99.90;;;;;;5032948;28;20069;-78
2021/12/24 05:59:09;;;;;;;40.70;18.70;;;9.70;99.90;;;;;;5032954;28;20468;-78
2021/12/24 06:01:35;;;;;;;40.50;17.95;;;9.70;99.90;;;;;;5032917;28;20031;-78
2021/12/24 06:04:01;;;;;;;32.20;16.38;;;9.70;99.90;;;;;;5032429;28;20103;-78
2021/12/24 06:06:26;;;;;;;42.92;18.25;;;9.70;99.90;;;;;;5032292;28;20030;-79
2021/12/24 06:08:52;;;;;;;31.63;17.70;;;9.70;99.90;;;;;;5032698;28;20025;-77
2021/12/24 06:11:18;;;;;;;30.58;17.10;;;9.70;99.90;;;;;;5032623;28;20038;-77
2021/12/24 06:13:44;;;;;;;35.20;17.33;;;9.70;99.90;;;;;;5032686;28;20139;-78
2021/12/24 06:16:10;;;;;;;40.33;16.48;;;9.70;99.90;;;;;;5032906;28;20412;-78
2021/12/24 06:18:39;;;;;;;35.83;15.20;;;9.70;99.90;;;;;;5032718;28;20018;-78
2021/12/24 06:21:05;;;;;;;37.30;14.63;;;9.70;99.90;;;;;;5032228;28;20025;-76
2021/12/24 06:23:32;;;;;;;27.15;13.43;;;9.70;99.90;;;;;;5032428;28;20132;-79
2021/12/24 06:26:01;;;;;;;35.03;12.88;;;9.60;99.90;;;;;;5033076;28;20025;-77
2021/12/24 06:28:28;;;;;;;23.90;11.70;;;9.60;99.90;;;;;;5032397;28;20022;-76
2021/12/24 06:30:54;;;;;;;32.58;11.18;;;9.60;99.90;;;;;;5033634;28;20084;-76
2021/12/24 06:33:20;;;;;;;27.40;10.50;;;9.60;99.90;;;;;;5037489;28;20048;-76
2021/12/24 06:35:46;;;;;;;31.27;10.27;;;9.60;99.90;;;;;;5036385;28;20025;-76
2021/12/24 06:38:12;;;;;;;23.90;10.77;;;9.60;99.90;;;;;;5036515;28;20033;-76
2021/12/24 06:40:38;;;;;;;25.63;10.25;;;9.60;99.90;;;;;;5036380;28;20028;-76
2021/12/24 06:43:04;;;;;;;31.30;10.25;;;9.50;99.90;;;;;;5036214;28;20397;-76
2021/12/24 06:45:31;;;;;;;33.92;10.55;;;9.50;99.90;;;;;;5035853;28;20025;-76
2021/12/24 06:47:59;;;;;;;26.27;9.90;;;9.50;99.90;;;;;;5036530;28;20060;-76
2021/12/24 06:50:26;;;;;;;25.73;9.52;;;9.50;99.90;;;;;;5035565;28;20064;-76
2021/12/24 06:52:52;;;;;;;27.83;9.80;;;9.50;99.90;;;;;;5034325;28;20037;-76
2021/12/24 06:55:19;;;;;;;24.63;9.13;;;9.60;99.90;;;;;;5032505;28;20051;-76
2021/12/24 06:57:45;;;;;;;23.60;9.52;;;9.50;99.90;;;;;;5036343;28;20029;-78
2021/12/24 07:00:15;;;;;;;31.33;9.52;;;9.50;99.90;;;;;;5035654;28;20108;-77
2021/12/24 07:02:41;;;;;;;26.02;9.85;;;9.50;99.90;;;;;;5033530;28;20037;-76
2021/12/24 07:05:07;;;;;;;23.90;9.00;;;9.50;99.90;;;;;;5035618;28;20025;-76
2021/12/24 07:07:32;;;;;;;31.05;10.63;;;9.50;99.90;;;;;;5036354;28;20491;-74
2021/12/24 07:09:58;;;;;;;23.05;9.65;;;9.50;99.90;;;;;;5035691;28;20090;-79
2021/12/24 07:12:24;;;;;;;31.77;10.82;;;9.50;99.90;;;;;;5036267;28;20037;-77
2021/12/24 07:14:49;;;;;;;25.35;9.75;;;9.50;99.90;;;;;;5034758;28;20056;-80
2021/12/24 07:17:16;;;;;;;25.90;9.00;;;9.50;99.90;;;;;;5035556;28;20386;-78
2021/12/24 07:19:42;;;;;;;29.23;9.55;;;9.50;99.90;;;;;;5035733;28;20104;-77
2021/12/24 07:22:08;;;;;;;27.23;9.55;;;9.40;99.90;;;;;;5035546;28;20013;-78
2021/12/24 07:24:35;;;;;;;28.98;9.30;;;9.40;99.90;;;;;;5034951;28;20044;-79
2021/12/24 07:27:01;;;;;;;29.17;9.23;;;9.40;99.90;;;;;;5039706;28;20077;-79
2021/12/24 07:29:27;;;;;;;25.88;9.88;;;9.40;99.90;;;;;;5041395;28;20029;-79
2021/12/24 07:31:54;;;;;;;27.77;10.07;;;9.40;99.90;;;;;;5035406;28;20385;-80
2021/12/24 07:34:20;;;;;;;25.13;10.25;;;9.40;99.90;;;;;;5035049;28;20037;-80
2021/12/24 07:36:46;;;;;;;35.05;10.55;;;9.40;99.90;;;;;;5035084;28;20083;-77
2021/12/24 07:39:12;;;;;;;39.63;10.57;;;9.40;99.90;;;;;;5035109;28;20435;-78
2021/12/24 07:41:38;;;;;;;33.95;10.75;;;9.40;99.90;;;;;;5034622;28;20361;-75
2021/12/24 07:44:04;;;;;;;30.08;9.70;;;9.40;99.90;;;;;;5034676;28;20029;-75
2021/12/24 07:46:42;;;;;;;27.52;9.65;;;9.40;99.90;;;;;;5034172;28;20033;-77
2021/12/24 07:54:31;;;;;;;28.00;9.77;;;9.40;99.90;;;;;;5034378;28;20092;-77
2021/12/24 07:56:58;;;;;;;24.35;9.27;;;9.30;99.90;;;;;;5033002;28;20476;-78
2021/12/24 07:59:25;;;;;;;27.55;9.95;;;9.30;99.90;;;;;;5034692;28;20045;-78
2021/12/24 08:01:53;;;;;;;27.85;9.35;;;9.30;99.90;;;;;;5033919;28;20033;-75
2021/12/24 08:04:18;;;;;;;33.95;10.73;;;9.30;99.90;;;;;;5035097;28;20709;-75
2021/12/24 08:06:44;;;;;;;34.15;10.80;;;9.30;99.90;;;;;;5034608;28;20064;-76
2021/12/24 08:09:10;;;;;;;21.25;8.55;;;9.30;99.90;;;;;;5034400;28;20377;-77
2021/12/24 08:11:36;;;;;;;27.77;9.32;;;9.30;99.90;;;;;;5031794;28;20053;-77
2021/12/24 08:14:03;;;;;;;26.13;9.20;;;9.30;99.90;;;;;;5034203;28;20029;-78
2021/12/24 08:16:29;;;;;;;36.20;9.95;;;9.30;99.90;;;;;;5031967;28;20097;-77
2021/12/24 08:18:55;;;;;;;30.40;10.07;;;9.20;99.90;;;;;;5034879;28;20040;-76
2021/12/24 08:21:21;;;;;;;27.38;10.32;;;9.30;99.90;;;;;;5034175;28;20468;-76
2021/12/24 08:23:48;;;;;;;27.67;9.52;;;9.20;99.90;;;;;;5025849;28;20061;-75
2021/12/24 08:26:15;;;;;;;32.22;9.48;;;9.20;99.90;;;;;;5039474;28;20029;-75
2021/12/24 08:28:41;;;;;;;29.48;9.60;;;9.20;99.90;;;;;;5034498;28;20032;-78
2021/12/24 08:31:07;;;;;;;31.23;9.60;;;9.20;99.90;;;;;;5032331;28;20111;-75
2021/12/24 08:33:34;;;;;;;33.42;9.20;;;9.20;99.90;;;;;;5034390;28;20037;-78
2021/12/24 08:36:01;;;;;;;30.48;10.85;;;9.20;99.90;;;;;;5034160;28;20113;-80
2021/12/24 08:38:26;;;;;;;32.30;9.98;;;9.20;99.90;;;;;;5032549;28;20033;-78
2021/12/24 08:40:52;;;;;;;30.27;10.32;;;9.20;99.90;;;;;;5032931;28;20472;-77
2021/12/24 08:43:17;;;;;;;29.80;9.75;;;9.20;99.90;;;;;;5034445;28;20029;-77
2021/12/24 08:45:43;;;;;;;32.13;9.50;;;9.20;99.90;;;;;;5031880;28;20032;-78
2021/12/24 08:48:09;;;;;;;34.22;10.98;;;9.20;99.90;;;;;;5033727;28;20431;-78
2021/12/24 08:50:35;;;;;;;30.10;10.38;;;9.20;99.90;;;;;;5032445;28;20119;-78
2021/12/24 08:53:00;;;;;;;34.10;11.73;;;9.10;99.90;;;;;;5029521;28;20044;-78
2021/12/24 08:55:26;;;;;;;34.65;11.25;;;9.20;99.90;;;;;;5033540;28;20034;-78
2021/12/24 08:57:52;;;;;;;34.33;11.18;;;9.20;99.90;;;;;;5033476;28;20535;-78
2021/12/24 09:00:20;;;;;;;32.97;11.27;;;9.20;99.90;;;;;;5033542;28;20109;-78
2021/12/24 09:02:46;;;;;;;38.25;11.30;;;9.20;99.90;;;;;;5033774;28;20031;-78
2021/12/24 09:05:13;;;;;;;29.98;11.35;;;9.20;99.90;;;;;;5032670;28;20037;-78
2021/12/24 09:07:40;;;;;;;36.33;11.95;;;9.20;99.90;;;;;;5031763;28;20080;-78
2021/12/24 09:10:09;;;;;;;31.75;12.02;;;9.10;99.90;;;;;;5032721;28;20025;-77
2021/12/24 09:12:34;;;;;;;38.40;13.63;;;9.10;99.90;;;;;;5029907;28;20030;-77
2021/12/24 09:15:01;;;;;;;34.40;11.98;;;9.10;99.90;;;;;;5031432;28;20106;-77
2021/12/24 09:17:28;;;;;;;34.83;12.93;;;9.20;99.90;;;;;;5033008;28;20041;-78
2021/12/24 09:19:55;;;;;;;30.42;12.02;;;9.10;99.90;;;;;;5031686;28;20095;-77
2021/12/24 09:22:28;;;;;;;26.65;11.82;;;9.20;99.90;;;;;;5037215;28;20481;-76
2021/12/24 09:24:56;;;;;;;33.67;13.80;;;9.10;99.90;;;;;;5017977;28;20029;-76
2021/12/24 09:27:22;;;;;;;32.28;12.65;;;9.20;99.90;;;;;;5032680;28;20029;-76
2021/12/24 09:29:48;;;;;;;38.15;13.55;;;9.10;99.90;;;;;;5017154;28;20123;-77
2021/12/24 09:32:14;;;;;;;35.35;15.48;;;9.20;99.90;;;;;;5025243;28;20149;-78
2021/12/24 09:34:40;;;;;;;40.05;15.55;;;9.20;99.90;;;;;;5015528;28;20044;-75
2021/12/24 09:37:06;;;;;;;38.13;15.30;;;9.20;99.90;;;;;;5015618;28;20033;-76
2021/12/24 09:39:32;;;;;;;33.22;15.07;;;9.20;99.90;;;;;;5021664;28;20033;-76
2021/12/24 09:41:59;;;;;;;34.28;15.45;;;9.20;99.90;;;;;;5020927;28;20558;-76
2021/12/24 09:44:25;;;;;;;32.53;14.18;;;9.20;99.90;;;;;;5014992;28;20109;-76
2021/12/24 09:46:51;;;;;;;43.95;16.55;;;9.20;99.90;;;;;;5018950;28;20517;-76
2021/12/24 09:49:17;;;;;;;45.60;16.30;;;9.20;99.90;;;;;;5029929;28;20117;-74
2021/12/24 09:51:46;;;;;;;52.08;17.90;;;9.20;99.90;;;;;;5032499;28;20026;-74
2021/12/24 09:54:14;;;;;;;44.10;16.63;;;9.20;99.90;;;;;;5032336;28;20087;-75
2021/12/24 09:56:41;;;;;;;40.10;15.98;;;9.20;99.90;;;;;;5032838;28;20464;-75
2021/12/24 09:59:08;;;;;;;39.78;15.43;;;9.20;99.90;;;;;;5033226;28;20037;-75
2021/12/24 10:01:43;;;;;;;43.70;15.85;;;9.20;99.90;;;;;;5021921;28;20072;-77
2021/12/24 10:04:11;;;;;;;43.63;15.68;;;9.20;99.90;;;;;;5030588;28;20044;-77
2021/12/24 10:06:39;;;;;;;38.15;15.43;;;9.20;99.90;;;;;;5024756;28;20087;-76
2021/12/24 10:09:08;;;;;;;39.20;15.35;;;9.30;99.90;;;;;;5018027;28;20021;-75
2021/12/24 10:12:07;;;;;;;41.47;15.00;;;9.30;99.90;;;;;;5016655;28;20032;-75
2021/12/24 10:14:36;;;;;;;27.17;14.05;;;9.30;99.90;;;;;;5016476;28;20049;-75
2021/12/24 10:17:11;;;;;;;44.67;14.80;;;9.30;99.90;;;;;;5016221;28;20032;-75
2021/12/24 10:19:45;;;;;;;37.90;13.82;;;9.30;99.90;;;;;;5014458;28;20050;-75
2021/12/24 10:22:11;;;;;;;50.78;16.25;;;9.30;99.90;;;;;;5018405;28;20025;-75
2021/12/24 10:24:37;;;;;;;36.45;14.88;;;9.40;99.90;;;;;;5012141;28;20030;-76
2021/12/24 10:27:03;;;;;;;38.10;14.07;;;9.40;99.90;;;;;;5031379;28;20116;-73
2021/12/24 10:29:41;;;;;;;39.25;13.77;;;9.40;99.90;;;;;;5032800;28;20358;-73
2021/12/24 10:32:18;;;;;;;40.15;13.20;;;9.40;99.90;;;;;;5032956;28;20021;-74
2021/12/24 10:34:44;;;;;;;40.28;13.05;;;9.30;99.90;;;;;;5032632;28;20471;-73
2021/12/24 10:37:26;;;;;;;39.42;12.15;;;9.30;99.90;;;;;;5032520;28;20116;-74
2021/12/24 10:40:00;;;;;;;35.00;11.40;;;9.40;99.90;;;;;;5032696;28;20036;-74
2021/12/24 10:42:37;;;;;;;34.50;11.10;;;9.40;99.90;;;;;;5032428;28;20028;-74
2021/12/24 10:45:07;;;;;;;32.05;11.05;;;9.40;99.90;;;;;;5031828;28;20033;-75
2021/12/24 10:47:37;;;;;;;34.72;12.07;;;9.40;99.90;;;;;;5032250;28;20072;-75
2021/12/24 10:50:15;;;;;;;31.48;11.10;;;9.40;99.90;;;;;;5032380;28;20041;-75
2021/12/24 10:55:24;;;;;;;36.55;11.75;;;9.40;99.90;;;;;;5031795;28;20065;-74
2021/12/24 10:57:52;;;;;;;35.63;12.45;;;9.40;99.90;;;;;;5032518;28;20030;-74
2021/12/24 11:00:20;;;;;;;36.67;12.23;;;9.40;99.90;;;;;;5031867;28;20489;-74
2021/12/24 11:02:53;;;;;;;35.25;12.18;;;9.40;99.90;;;;;;5031617;28;20120;-79
2021/12/24 11:05:23;;;;;;;;;;;9.50;99.90;;;;;;5032304;28;20021;-75
2021/12/24 11:07:48;;;;;;;33.20;11.65;;;9.40;99.90;;;;;;5031910;28;19912;-76
2021/12/24 11:10:15;;;;;;;40.67;12.18;;;9.40;99.90;;;;;;5031968;28;20030;-74
2021/12/24 11:12:44;;;;;;;30.73;11.77;;;9.40;99.90;;;;;;5015752;28;20421;-76
2021/12/24 11:15:31;;;;;;;36.10;12.70;;;9.50;99.90;;;;;;5014040;28;20040;-74
2021/12/24 11:18:27;;;;;;;35.17;12.63;;;9.50;99.90;;;;;;5020862;28;20048;-75
2021/12/24 11:21:11;;;;;;;36.65;12.63;;;9.50;99.90;;;;;;5033004;28;20392;-75
2021/12/24 11:23:39;;;;;;;42.88;12.63;;;9.50;99.90;;;;;;5025546;28;20045;-76
2021/12/24 11:26:11;;;;;;;32.92;12.07;;;9.50;99.90;;;;;;5034074;28;20060;-75
2021/12/24 11:28:38;;;;;;;31.70;12.10;;;9.50;99.90;;;;;;5035154;28;20358;-77
2021/12/24 11:31:19;;;;;;;29.50;11.45;;;9.50;99.90;;;;;;5034372;28;20033;-77
2021/12/24 11:33:46;;;;;;;31.42;10.88;;;9.40;99.90;;;;;;5035052;28;20113;-77
2021/12/24 11:36:14;;;;;;;36.97;11.18;;;9.50;99.90;;;;;;5034610;28;20060;-75
2021/12/24 11:38:46;;;;;;;30.02;10.85;;;9.50;99.90;;;;;;5034791;28;20112;-77
2021/12/24 11:41:14;;;;;;;36.38;10.77;;;9.50;99.90;;;;;;5035095;28;20037;-77
2021/12/24 11:43:43;;;;;;;29.23;10.48;;;9.50;99.90;;;;;;5033253;28;20033;-79
2021/12/24 11:46:11;;;;;;;35.78;9.55;;;9.50;99.90;;;;;;5035374;28;20025;-79
2021/12/24 11:48:38;;;;;;;36.35;10.77;;;9.50;99.90;;;;;;5035018;28;20034;-77
2021/12/24 11:51:25;;;;;;;31.90;9.13;;;9.50;99.90;;;;;;5034408;28;20033;-78
2021/12/24 11:53:57;;;;;;;28.00;7.85;;;9.50;99.90;;;;;;5031177;28;20060;-75
2021/12/24 11:56:23;;;;;;;29.20;8.57;;;9.40;99.90;;;;;;5030567;28;20034;-74
2021/12/24 11:58:53;;;;;;;30.60;7.65;;;9.50;99.90;;;;;;5033555;28;20049;-76
2021/12/24 12:01:21;;;;;;;35.60;7.47;;;9.50;99.90;;;;;;5033380;28;20023;-79
2021/12/24 12:03:52;;;;;;;29.58;8.13;;;9.50;99.90;;;;;;5033817;28;20354;-75
2021/12/24 12:06:24;;;;;;;28.75;7.70;;;9.50;99.90;;;;;;5030854;28;20037;-80
2021/12/24 12:08:55;;;;;;;31.88;7.35;;;9.50;99.90;;;;;;5033950;28;20060;-76
2021/12/24 12:11:24;;;;;;;30.90;6.68;;;9.50;99.90;;;;;;5035178;28;20056;-78
2021/12/24 12:14:26;;;;;;;27.95;6.88;;;9.60;99.90;;;;;;5046593;28;20048;-78
2021/12/24 12:16:57;;;;;;;24.65;7.32;;;9.60;99.90;;;;;;5035917;28;20427;-79
2021/12/24 12:25:41;;;;;;;29.98;7.88;;;9.60;99.90;;;;;;5020604;28;20034;-78
2021/12/24 12:28:13;;;;;;;24.42;7.70;;;9.60;99.90;;;;;;5032808;28;20621;-77
2021/12/24 12:30:50;;;;;;;27.48;8.15;;;9.70;99.90;;;;;;5033300;28;20233;-78
2021/12/24 12:33:22;;;;;;;28.83;7.45;;;9.70;99.90;;;;;;5033310;28;20434;-77
2021/12/24 12:35:54;;;;;;;29.83;6.80;;;9.70;99.90;;;;;;5034763;28;20108;-78
2021/12/24 12:38:29;;;;;;;30.25;7.78;;;9.80;99.90;;;;;;5034020;28;20041;-78
2021/12/24 12:41:38;;;;;;;22.58;8.00;;;9.70;99.90;;;;;;5034736;28;20053;-78
2021/12/24 12:44:07;;;;;;;33.80;9.10;;;9.70;99.90;;;;;;5034710;28;20028;-78
2021/12/24 12:46:39;;;;;;;28.65;10.23;;;9.70;99.90;;;;;;5034350;28;20022;-78
2021/12/24 12:49:07;;;;;;;29.17;9.57;;;9.70;99.90;;;;;;5034686;28;20033;-78
2021/12/24 12:51:51;;;;;;;27.13;9.40;;;9.60;99.90;;;;;;5034686;28;20025;-78
2021/12/24 12:54:28;;;;;;;30.70;10.18;;;9.60;99.90;;;;;;5034313;28;20049;-78
2021/12/24 12:57:27;;;;;;;29.80;10.90;;;9.70;99.90;;;;;;5034328;28;20029;-78
2021/12/24 13:00:12;;;;;;;30.67;11.13;;;9.60;99.90;;;;;;5034368;28;20430;-78
2021/12/24 13:02:56;;;;;;;31.10;11.40;;;9.60;99.90;;;;;;5034448;28;20028;-78
2021/12/24 13:05:26;;;;;;;30.58;11.77;;;9.50;99.90;;;;;;5034148;28;20034;-78
2021/12/24 13:07:53;;;;;;;27.83;10.90;;;9.50;99.90;;;;;;5039066;28;20081;-79
2021/12/24 13:10:19;;;;;;;28.88;10.95;;;9.50;99.90;;;;;;5041851;28;20432;-79
2021/12/24 13:12:45;;;;;;;28.60;11.02;;;9.50;99.90;;;;;;5033976;28;20026;-78
2021/12/24 13:15:16;;;;;;;31.08;11.93;;;9.50;99.90;;;;;;5034187;28;20021;-78
2021/12/24 13:17:46;;;;;;;28.95;11.65;;;9.50;99.90;;;;;;5034107;28;20026;-79
2021/12/24 13:20:18;;;;;;;38.42;13.68;;;9.50;99.90;;;;;;5034174;28;20029;-79
2021/12/24 13:22:44;;;;;;;30.15;13.45;;;9.50;99.90;;;;;;5034061;28;20017;-77
2021/12/24 13:25:16;;;;;;;39.92;13.13;;;9.50;99.90;;;;;;5034088;28;20034;-78
2021/12/24 13:27:49;;;;;;;36.03;13.57;;;9.50;99.90;;;;;;5034057;28;20092;-78
2021/12/24 13:30:31;;;;;;;31.67;12.43;;;9.50;99.90;;;;;;5033533;28;20040;-78
2021/12/24 13:33:02;;;;;;;28.23;11.50;;;9.50;99.90;;;;;;5034006;28;20034;-78
2021/12/24 13:35:29;;;;;;;28.75;12.43;;;9.50;99.90;;;;;;5033727;28;20584;-78
2021/12/24 13:37:55;;;;;;;28.38;12.65;;;9.50;99.90;;;;;;5033296;28;20029;-78
2021/12/24 13:40:28;;;;;;;36.65;14.02;;;9.50;99.90;;;;;;5033409;28;20107;-78
2021/12/24 13:42:57;;;;;;;30.38;12.45;;;9.50;99.90;;;;;;5033741;28;20033;-78
2021/12/24 13:45:26;;;;;;;26.52;13.52;;;9.40;99.90;;;;;;5033716;28;20053;-78
2021/12/24 13:54:30;;;;;;;32.33;12.65;;;9.40;99.90;;;;;;5033932;28;20029;-78
2021/12/24 13:55:56;;;;;;;32.42;12.73;;;9.50;99.90;;;;;;5033605;28;20044;-78
2021/12/24 13:58:23;;;;;;;34.00;13.77;;;9.50;99.90;;;;;;5033523;28;20029;-78
2021/12/24 14:00:52;;;;;;;36.38;12.75;;;9.50;99.90;;;;;;5033526;28;20021;-78
2021/12/24 14:03:23;;;;;;;26.80;12.15;;;9.50;99.90;;;;;;5038763;28;20052;-78
2021/12/24 14:05:51;;;;;;;33.03;13.40;;;9.50;99.90;;;;;;5041833;28;20025;-79
2021/12/24 14:08:19;;;;;;;32.95;12.85;;;9.50;99.90;;;;;;5035221;28;20025;-78
2021/12/24 14:10:47;;;;;;;34.30;13.15;;;9.50;99.90;;;;;;5033447;28;20037;-78
2021/12/24 14:13:29;;;;;;;27.88;12.38;;;9.50;99.90;;;;;;5033164;28;20519;-78
2021/12/24 14:23:42;;;;;;;33.33;12.98;;;9.50;99.90;;;;;;5033337;28;20025;-78
2021/12/24 14:26:08;;;;;;;28.88;12.98;;;9.50;99.90;;;;;;5033296;28;20075;-78
2021/12/24 14:28:34;;;;;;;25.65;12.30;;;9.50;99.90;;;;;;5032830;28;20117;-78
2021/12/24 14:31:04;;;;;;;34.03;13.10;;;9.50;99.90;;;;;;5033043;28;20029;-78
2021/12/24 14:33:37;;;;;;;35.85;14.00;;;9.50;99.90;;;;;;5033302;28;20036;-78
2021/12/24 14:36:04;;;;;;;30.23;12.90;;;9.50;99.90;;;;;;5033170;28;20033;-78
2021/12/24 14:38:30;;;;;;;31.48;12.95;;;9.50;99.90;;;;;;5033158;28;20060;-78
2021/12/24 14:40:58;;;;;;;29.77;12.88;;;9.50;99.90;;;;;;5033090;28;20381;-78
2021/12/24 14:43:25;;;;;;;32.25;12.93;;;9.50;99.90;;;;;;5032863;28;20448;-78
2021/12/24 14:45:51;;;;;;;31.30;13.80;;;9.50;99.90;;;;;;5032833;28;20026;-78
2021/12/24 14:48:26;;;;;;;25.63;12.95;;;9.60;99.90;;;;;;5033313;28;20026;-79
2021/12/24 14:51:04;;;;;;;23.42;12.68;;;9.60;99.90;;;;;;5036992;28;20033;-78